Terminal Aerodrome Forecast
Issued by NWS Cleveland, OH

Home | Current Version | Previous Version | Text Only | Print | Product List | Glossary On
Versions: 1 2 3 4 5 6 7 8 9 10 11 12 13 14 15 16 17 18 19 20 21 22 23 24 25 26 27 28 29 30
000
FTUS41 KCLE 211400 AAC
TAFCLE
TAF AMD
KCLE 211441Z 2115/2218 28015G25KT P6SM SCT025 BKN035
      TEMPO 2115/2119 BKN025
     FM211900 30015G22KT P6SM VCTS BKN035CB
      TEMPO 2119/2123 5SM -SHRA OVC035
     FM220100 33012KT P6SM VCSH BKN030=

USA.gov is the U.S. government's official web portal to all federal, state and local government web resources and services.